Airfield :
LOGIN :

Register | Disclaimer

   EN    FR    IT 

 










Legend :    VFR   Marginal VFR   IFR   Intensive IFR   Very Intensive IFR
Visi :
Ceiling :
>= 8 km
>= 3000ft
5 to 8 km
1000 to 3000 ft
1500m to 5 km
500 to 1000 ft
800 to 1500m
200 to 500 ft
< 800m
< 200 ft
Symbols :   Thunderstorms  Fog  Heavy snow  Heavy precipitations  Wind > 20 kt
SIGMETs :     Misc.  Thunderstorms  Icing  Turbulence  Mountain Waves  Volcanic Ashes







- Airport Elevation : 604 ft
- IATA code : LCJ


EPLL - Lodz

CURRENT METAR :
  • 231800Z 13008KT 7000 BKN018 OVC021 M02/M05 Q1026

EXPIRED METARs :
  • 231730Z 12007KT 6000 OVC017 M02/M05 Q1026
  • 231700Z 13005KT 6000 FEW019 BKN024 M02/M05 Q1026
  • 231630Z 12005KT 6000 SCT019 BKN023 M03/M05 Q1025
  • 231600Z 12006KT 7000 FEW018 SCT021 BKN026 M02/M05 Q1025
  • 231530Z 12005KT 7000 FEW020 BKN023 BKN027 M02/M05 Q1025

TAF TAF EPLL
Valid from the 23 at 18:00 until the 24 at 18:00 UTC


231730Z 2318/2418 14007KT 9999 BKN020
TEMPO 2318/2418 2700 BR SCT005 BKN013
No reported NOTAMs for that airfield.



MET'MAP, your aeronautical weather chart ! - Copyright ORBIFLY December 2007 - Disclaimer

ORBIFLY MET'MAP TEAM :

Programming & Development : Alexandra Zaïnal
Concept & Development : Baudouin d'Aumeries
Co-Development & Prog : Marc-Olivier Méhu
Technical & hardware support : Manuel Goepfert

Contact : metmap@orbifly.com




SOURCES & CREDITS :

   NOAA